createdAt,value
2018-07-04T00:01:46.969Z,5.47
2018-07-04T00:04:25.958Z,5.60
2018-07-04T00:07:04.773Z,6.07
2018-07-04T00:09:43.627Z,5.20
2018-07-04T00:12:22.488Z,5.47
2018-07-04T00:15:01.369Z,8.03
2018-07-04T00:17:40.731Z,5.30
2018-07-04T00:20:23.444Z,5.70
2018-07-04T00:23:02.359Z,5.83
2018-07-04T00:25:41.241Z,4.83
2018-07-04T00:28:20.037Z,5.57
2018-07-04T00:30:58.844Z,6.80
2018-07-04T00:33:37.820Z,4.80
2018-07-04T00:36:16.725Z,5.03
2018-07-04T00:38:55.727Z,4.63
2018-07-04T00:41:34.652Z,5.53
2018-07-04T00:44:13.469Z,5.13
2018-07-04T00:46:52.232Z,6.47
2018-07-04T00:49:31.156Z,5.77
2018-07-04T00:52:10.103Z,5.07
2018-07-04T00:54:48.911Z,5.60
2018-07-04T00:57:27.704Z,5.67
2018-07-04T01:00:06.504Z,5.40
2018-07-04T01:02:45.248Z,5.23
2018-07-04T01:05:24.203Z,5.00
2018-07-04T01:08:03.085Z,5.47
2018-07-04T01:10:41.946Z,5.70
2018-07-04T01:13:20.798Z,5.13
2018-07-04T01:15:59.677Z,5.17
2018-07-04T01:18:38.685Z,5.53
2018-07-04T01:21:17.704Z,5.70
2018-07-04T01:23:56.696Z,5.80
2018-07-04T01:26:35.467Z,6.30
2018-07-04T01:29:14.580Z,5.87
2018-07-04T01:31:53.687Z,6.20
2018-07-04T01:34:32.691Z,5.97
2018-07-04T01:37:11.632Z,6.40
2018-07-04T01:39:50.420Z,6.30
2018-07-04T01:42:29.260Z,5.53
2018-07-04T01:45:08.124Z,5.77
2018-07-04T01:47:46.975Z,6.57
2018-07-04T01:50:28.840Z,6.87
2018-07-04T01:53:07.776Z,7.00
2018-07-04T01:55:46.552Z,6.63
2018-07-04T01:58:25.401Z,6.33
2018-07-04T02:01:04.190Z,6.60
2018-07-04T02:03:43.144Z,6.83
2018-07-04T02:06:21.908Z,10.70
2018-07-04T02:09:00.691Z,7.20
2018-07-04T02:11:39.488Z,6.43
2018-07-04T02:14:18.280Z,7.03
2018-07-04T02:16:57.032Z,7.43
2018-07-04T02:19:35.868Z,7.73
2018-07-04T02:22:14.804Z,8.33
2018-07-04T02:24:53.706Z,6.40
2018-07-04T02:27:32.529Z,7.55
2018-07-04T02:30:11.405Z,7.93
2018-07-04T02:32:50.172Z,6.47
2018-07-04T02:35:28.993Z,7.00
2018-07-04T02:38:07.780Z,7.20
2018-07-04T02:40:46.612Z,7.03
2018-07-04T02:43:25.343Z,7.30
2018-07-04T02:46:04.265Z,7.90
2018-07-04T02:48:43.128Z,7.07
2018-07-04T02:51:21.966Z,7.65
2018-07-04T02:54:00.767Z,6.70
2018-07-04T02:56:39.697Z,9.13
2018-07-04T02:59:18.596Z,7.90
2018-07-04T03:01:57.577Z,7.20
2018-07-04T03:04:36.460Z,7.40
2018-07-04T03:07:15.392Z,7.70
2018-07-04T03:09:54.357Z,6.70
2018-07-04T03:12:33.255Z,7.35
2018-07-04T03:15:12.073Z,7.55
2018-07-04T03:17:51.003Z,7.28
2018-07-04T03:20:29.928Z,7.53
2018-07-04T03:23:08.760Z,7.58
2018-07-04T03:25:47.605Z,7.22
2018-07-04T03:28:26.412Z,7.80
2018-07-04T03:31:05.497Z,7.35
2018-07-04T03:33:44.433Z,8.50
2018-07-04T03:36:23.204Z,7.22
2018-07-04T03:39:02.052Z,7.70
2018-07-04T03:41:40.826Z,7.55
2018-07-04T03:44:19.612Z,7.22
2018-07-04T03:46:58.431Z,7.45
2018-07-04T03:49:37.268Z,8.08
2018-07-04T03:52:16.016Z,7.20
2018-07-04T03:54:54.807Z,7.83
2018-07-04T03:57:33.635Z,7.47
2018-07-04T04:00:12.453Z,7.15
2018-07-04T04:02:51.220Z,7.05
2018-07-04T04:05:29.935Z,7.35
2018-07-04T04:08:08.790Z,7.08
2018-07-04T04:10:47.553Z,7.58
2018-07-04T04:13:26.503Z,8.48
2018-07-04T04:16:05.383Z,7.83
2018-07-04T04:18:44.324Z,7.78
2018-07-04T04:21:23.232Z,7.30
2018-07-04T04:24:02.127Z,6.83
2018-07-04T04:26:41.012Z,8.40
2018-07-04T04:29:19.912Z,6.97
2018-07-04T04:31:58.798Z,7.35
2018-07-04T04:34:37.732Z,7.17
2018-07-04T04:37:16.606Z,6.90
2018-07-04T04:39:55.571Z,8.25
2018-07-04T04:42:34.340Z,7.05
2018-07-04T04:45:13.314Z,8.45
2018-07-04T04:47:52.194Z,8.15
2018-07-04T04:50:31.107Z,7.85
2018-07-04T04:53:10.003Z,8.08
2018-07-04T04:55:48.972Z,7.67
2018-07-04T04:58:27.720Z,8.73
2018-07-04T05:01:06.604Z,7.20
2018-07-04T05:03:45.491Z,6.70
2018-07-04T05:06:24.476Z,7.83
2018-07-04T05:09:03.899Z,8.97
2018-07-04T05:11:42.694Z,9.17
2018-07-04T05:14:21.528Z,10.90
2018-07-04T05:17:00.357Z,7.63
2018-07-04T05:19:39.128Z,6.83
2018-07-04T05:22:18.063Z,6.90
2018-07-04T05:24:56.927Z,7.87
2018-07-04T05:27:35.894Z,7.80
2018-07-04T05:30:14.709Z,10.43
2018-07-04T05:32:53.515Z,12.57
2018-07-04T05:35:32.404Z,7.43
2018-07-04T05:38:11.303Z,6.67
2018-07-04T05:40:50.271Z,11.90
2018-07-04T05:43:29.053Z,7.37
2018-07-04T05:46:07.831Z,7.77
2018-07-04T05:48:46.583Z,8.33
2018-07-04T05:51:25.377Z,9.17
2018-07-04T05:54:04.324Z,13.43
2018-07-04T05:56:43.212Z,7.70
2018-07-04T05:59:22.104Z,8.10
2018-07-04T06:02:01.112Z,6.63
2018-07-04T06:04:40.085Z,7.43
2018-07-04T06:07:18.999Z,7.37
2018-07-04T06:09:57.951Z,6.90
2018-07-04T06:12:36.860Z,6.70
2018-07-04T06:15:15.588Z,7.63
2018-07-04T06:17:54.528Z,8.30
2018-07-04T06:20:33.339Z,8.97
2018-07-04T06:23:12.239Z,7.80
2018-07-04T06:25:51.047Z,7.90
2018-07-04T06:28:30.102Z,6.20
2018-07-04T06:31:09.091Z,7.73
2018-07-04T06:33:47.988Z,7.10
2018-07-04T06:36:26.893Z,6.73
2018-07-04T06:38:53.424Z,7.03
2018-07-04T06:41:19.945Z,10.63
2018-07-04T06:43:46.488Z,6.80
2018-07-04T06:46:13.000Z,7.37
2018-07-04T06:48:39.520Z,5.90
2018-07-04T06:51:06.027Z,10.13
2018-07-04T06:53:32.576Z,6.27
2018-07-04T06:55:59.081Z,6.60
2018-07-04T06:58:25.605Z,7.73
2018-07-04T07:00:52.164Z,8.20
2018-07-04T07:03:30.992Z,6.87
2018-07-04T07:06:09.875Z,10.70
2018-07-04T07:08:48.819Z,5.83
2018-07-04T07:11:27.693Z,5.70
2018-07-04T07:14:06.624Z,5.90
2018-07-04T07:16:45.496Z,5.53
2018-07-04T07:19:24.348Z,6.40
2018-07-04T07:22:03.328Z,5.70
2018-07-04T07:24:42.220Z,8.67
2018-07-04T07:27:21.134Z,8.07
2018-07-04T07:30:00.015Z,5.30
2018-07-04T07:32:38.984Z,6.23
2018-07-04T07:35:17.868Z,5.67
2018-07-04T07:37:56.765Z,5.17
2018-07-04T07:40:35.661Z,7.33
2018-07-04T07:43:14.660Z,6.47
2018-07-04T07:45:53.572Z,6.00
2018-07-04T07:48:32.412Z,5.73
2018-07-04T07:51:11.560Z,5.37
2018-07-04T07:53:50.312Z,6.20
2018-07-04T07:56:29.239Z,4.93
2018-07-04T07:59:08.185Z,4.70
2018-07-04T08:01:47.290Z,4.90
2018-07-04T08:04:26.228Z,7.93
2018-07-04T08:07:05.081Z,5.57
2018-07-04T08:09:44.096Z,5.57
2018-07-04T08:12:22.940Z,5.30
2018-07-04T08:15:01.745Z,4.90
2018-07-04T08:17:40.540Z,4.57
2018-07-04T08:20:19.480Z,5.60
2018-07-04T08:22:58.396Z,4.80
2018-07-04T08:25:37.240Z,7.20
2018-07-04T08:28:16.088Z,4.43
2018-07-04T08:30:54.851Z,5.53
2018-07-04T08:33:33.792Z,4.73
2018-07-04T08:36:12.685Z,4.83
2018-07-04T08:38:51.631Z,4.83
2018-07-04T08:41:30.420Z,4.70
2018-07-04T08:44:09.277Z,6.07
2018-07-04T08:46:48.062Z,8.33
2018-07-04T08:49:26.856Z,5.50
2018-07-04T08:52:05.836Z,4.27
2018-07-04T08:54:44.654Z,5.10
2018-07-04T08:57:23.591Z,4.50
2018-07-04T09:00:02.401Z,4.80
2018-07-04T09:02:41.263Z,5.13
2018-07-04T09:05:20.134Z,8.80
2018-07-04T09:07:58.973Z,4.37
2018-07-04T09:10:37.772Z,4.73
2018-07-04T09:13:16.599Z,4.20
2018-07-04T09:15:55.769Z,4.13
2018-07-04T09:18:34.609Z,4.77
2018-07-04T09:21:13.452Z,5.03
2018-07-04T09:23:52.244Z,3.80
2018-07-04T09:26:31.064Z,5.20
2018-07-04T09:29:09.935Z,4.27
2018-07-04T09:31:48.815Z,4.93
2018-07-04T09:34:28.483Z,4.73
2018-07-04T09:37:07.425Z,4.50
2018-07-04T09:39:46.328Z,4.77
2018-07-04T09:42:25.260Z,4.67
2018-07-04T09:45:04.226Z,4.77
2018-07-04T09:47:43.390Z,6.80
2018-07-04T09:50:22.356Z,5.50
2018-07-04T09:53:01.250Z,5.53
2018-07-04T09:55:40.216Z,6.13
2018-07-04T09:58:19.087Z,15.80
2018-07-04T10:01:03.608Z,9.00
2018-07-04T10:03:42.509Z,11.03
2018-07-04T10:06:21.403Z,7.57
2018-07-04T10:09:00.375Z,10.17
2018-07-04T10:11:39.277Z,8.73
2018-07-04T10:14:18.044Z,8.70
2018-07-04T10:16:56.879Z,9.53
2018-07-04T10:19:35.824Z,12.00
2018-07-04T10:22:14.641Z,7.77
2018-07-04T10:24:53.484Z,8.60
2018-07-04T10:27:32.422Z,7.67
2018-07-04T10:30:11.370Z,5.65
2018-07-04T10:32:50.223Z,6.92
2018-07-04T10:35:29.227Z,7.35
2018-07-04T10:38:07.967Z,9.68
2018-07-04T10:40:47.390Z,8.28
2018-07-04T10:43:26.297Z,6.75
2018-07-04T10:46:05.081Z,9.58
2018-07-04T10:48:43.848Z,8.75
2018-07-04T10:51:22.642Z,7.72
2018-07-04T10:54:01.436Z,6.50
2018-07-04T10:56:40.205Z,7.33
2018-07-04T10:59:18.997Z,10.40
2018-07-04T11:01:57.781Z,16.42
2018-07-04T11:04:36.651Z,7.25
2018-07-04T11:07:15.457Z,8.00
2018-07-04T11:09:54.328Z,10.15
2018-07-04T11:12:33.164Z,6.47
2018-07-04T11:15:12.096Z,7.40
2018-07-04T11:17:51.042Z,10.88
2018-07-04T11:20:29.845Z,8.45
2018-07-04T11:23:08.636Z,7.85
2018-07-04T11:25:47.515Z,9.15
2018-07-04T11:28:26.460Z,7.60
2018-07-04T11:31:05.239Z,7.15
2018-07-04T11:33:44.165Z,7.80
2018-07-04T11:36:23.139Z,8.90
2018-07-04T11:39:02.171Z,8.93
2018-07-04T11:41:40.913Z,10.90
2018-07-04T11:44:19.898Z,9.93
2018-07-04T11:46:46.429Z,9.70
2018-07-04T11:49:12.961Z,11.00
2018-07-04T11:51:39.496Z,11.40
2018-07-04T11:54:06.051Z,11.18
2018-07-04T11:56:32.586Z,11.75
2018-07-04T11:58:59.152Z,13.25
2018-07-04T12:01:25.676Z,14.53
2018-07-04T12:04:04.502Z,13.80
2018-07-04T12:06:43.420Z,15.48
2018-07-04T12:09:09.984Z,15.15
2018-07-04T12:11:36.542Z,17.77
2018-07-04T12:14:03.072Z,20.05
2018-07-04T12:16:29.668Z,19.55
2018-07-04T12:18:56.206Z,18.27
2018-07-04T12:21:22.769Z,20.07
2018-07-04T12:23:49.297Z,19.17
2018-07-04T12:26:15.852Z,17.70
2018-07-04T12:28:42.380Z,16.37
2018-07-04T12:31:08.943Z,14.80
2018-07-04T12:33:35.477Z,13.00
2018-07-04T12:36:02.048Z,11.87
2018-07-04T12:38:28.627Z,12.33
2018-07-04T12:40:55.141Z,12.63
2018-07-04T12:43:21.736Z,11.53
2018-07-04T12:45:48.282Z,10.90
2018-07-04T12:48:14.844Z,10.50
2018-07-04T12:50:41.436Z,11.93
2018-07-04T12:53:07.997Z,10.13
2018-07-04T12:55:46.937Z,10.10
2018-07-04T12:58:25.862Z,9.50
2018-07-04T13:01:04.861Z,9.83
2018-07-04T13:03:43.664Z,9.77
2018-07-04T13:06:22.439Z,8.17
2018-07-04T13:09:01.241Z,9.53
2018-07-04T13:11:40.015Z,7.73
2018-07-04T13:14:18.924Z,8.30
2018-07-04T13:16:57.795Z,7.53
2018-07-04T13:19:36.634Z,8.20
2018-07-04T13:22:15.507Z,7.43
2018-07-04T13:24:54.504Z,6.40
2018-07-04T13:27:33.465Z,5.53
2018-07-04T13:30:12.456Z,7.03
2018-07-04T13:32:51.217Z,6.37
2018-07-04T13:35:30.022Z,6.23
2018-07-04T13:38:08.893Z,6.67
2018-07-04T13:40:47.709Z,5.60
2018-07-04T13:43:26.657Z,14.23
2018-07-04T13:46:05.633Z,6.10
2018-07-04T13:48:44.417Z,5.93
2018-07-04T13:51:23.242Z,5.40
2018-07-04T13:54:02.104Z,5.30
2018-07-04T13:56:40.961Z,5.20
2018-07-04T13:59:19.680Z,5.10
2018-07-04T14:01:58.599Z,4.60
2018-07-04T14:04:37.382Z,4.47
2018-07-04T14:07:16.221Z,4.33
2018-07-04T14:09:55.131Z,4.87
2018-07-04T14:12:33.924Z,5.20
2018-07-04T14:15:12.730Z,5.07
2018-07-04T14:17:51.547Z,4.63
2018-07-04T14:20:30.302Z,5.00
2018-07-04T14:23:09.276Z,5.73
2018-07-04T14:25:48.136Z,5.00
2018-07-04T14:28:26.952Z,5.90
2018-07-04T14:31:05.843Z,4.87
2018-07-04T14:33:44.644Z,4.47
2018-07-04T14:36:23.448Z,4.87
2018-07-04T14:39:02.443Z,4.70
2018-07-04T14:41:41.297Z,4.43
2018-07-04T14:44:20.139Z,4.80
2018-07-04T14:46:58.968Z,7.83
2018-07-04T14:49:37.871Z,7.70
2018-07-04T14:52:16.824Z,6.20
2018-07-04T14:54:55.538Z,5.80
2018-07-04T14:57:34.361Z,5.50
2018-07-04T15:00:13.186Z,8.37
2018-07-04T15:02:52.021Z,6.27
2018-07-04T15:05:30.952Z,3.30
2018-07-04T15:08:09.784Z,3.40
2018-07-04T15:10:48.609Z,3.70
2018-07-04T15:13:27.529Z,2.80
2018-07-04T15:16:06.355Z,3.47
2018-07-04T15:18:45.143Z,3.92
2018-07-04T15:21:23.964Z,4.60
2018-07-04T15:24:02.747Z,4.17
